Time;durP1;ratioP1;P1;durP2;ratioP2;P2;SDS_P1;SDS_P2;PMS_P1;PMS_P2;Temp;Humidity;BMP_temperature;BMP_pressure;BME280_temperature;BME280_humidity;BME280_pressure;Samples;Min_cycle;Max_cycle;Signal;HPM_P1;HPM_P2
2023/04/10 07:11:51;;;;;;;7.47;6.25;;;;;;;;;;6291342;22;20023;-87
2023/04/10 10:26:13;;;;;;;5.90;5.40;;;;;;;;;;6282735;22;20053;-82
2023/04/10 10:28:40;;;;;;;5.82;4.93;;;;;;;;;;6310892;22;20014;-83
2023/04/10 10:31:06;;;;;;;5.72;4.90;;;;;;;;;;6308449;22;20000;-84
2023/04/10 10:33:35;;;;;;;6.70;4.97;;;;;;;;;;6308000;22;20007;-81
2023/04/10 10:36:02;;;;;;;5.93;5.32;;;;;;;;;;6307876;22;19999;-85
2023/04/10 10:38:27;;;;;;;5.60;4.90;;;;;;;;;;6306526;22;19999;-85
2023/04/10 10:41:11;;;;;;;5.82;5.25;;;;;;;;;;6308017;22;20007;-86
2023/04/10 10:43:46;;;;;;;6.03;5.40;;;;;;;;;;6308203;22;20326;-85
2023/04/10 10:46:22;;;;;;;5.85;5.25;;;;;;;;;;6308218;22;20018;-86
2023/04/10 10:48:58;;;;;;;6.10;5.22;;;;;;;;;;6308144;22;20372;-83
2023/04/10 10:51:42;;;;;;;6.07;5.45;;;;;;;;;;6308054;22;20368;-85
2023/04/10 10:54:30;;;;;;;5.50;5.00;;;;;;;;;;6308049;22;20429;-82
2023/04/10 10:56:55;;;;;;;5.43;4.93;;;;;;;;;;6310192;22;20031;-84
2023/04/10 10:59:43;;;;;;;5.28;4.78;;;;;;;;;;6310032;22;20373;-84
2023/04/10 11:02:15;;;;;;;5.13;4.53;;;;;;;;;;6310070;22;20003;-84
2023/04/10 11:04:50;;;;;;;6.63;5.13;;;;;;;;;;6310122;22;20032;-82
2023/04/10 11:07:15;;;;;;;5.30;4.80;;;;;;;;;;6310980;22;20003;-86
2023/04/10 11:09:52;;;;;;;5.40;4.90;;;;;;;;;;6310252;22;20080;-89
2023/04/10 11:12:22;;;;;;;6.93;5.13;;;;;;;;;;6312089;22;20026;-90
2023/04/10 11:14:58;;;;;;;5.10;4.60;;;;;;;;;;6311870;22;20320;-92
2023/04/10 11:17:45;;;;;;;5.10;4.43;;;;;;;;;;6313308;22;20021;-96
2023/04/10 11:20:11;;;;;;;5.30;4.85;;;;;;;;;;6311348;22;20009;-87
2023/04/10 11:23:07;;;;;;;4.85;4.35;;;;;;;;;;6310117;22;20102;-86
2023/04/10 11:25:53;;;;;;;5.78;4.95;;;;;;;;;;6310482;22;20033;-90
2023/04/10 11:28:38;;;;;;;5.57;4.93;;;;;;;;;;6311069;22;20022;-90
2023/04/10 11:31:22;;;;;;;7.72;4.80;;;;;;;;;;6312855;22;20003;-91
2023/04/10 11:33:48;;;;;;;6.20;4.75;;;;;;;;;;6311121;22;20007;-92
2023/04/10 11:36:16;;;;;;;5.10;4.60;;;;;;;;;;6310059;22;19999;-89
2023/04/10 11:38:59;;;;;;;5.10;4.60;;;;;;;;;;6310507;22;20056;-89
2023/04/10 11:41:33;;;;;;;4.75;4.35;;;;;;;;;;6308512;22;20007;-88
2023/04/10 11:44:03;;;;;;;5.88;5.10;;;;;;;;;;6310196;22;19999;-89
2023/04/10 11:46:29;;;;;;;6.13;4.78;;;;;;;;;;6308225;22;20003;-88
2023/04/10 11:48:58;;;;;;;6.22;5.03;;;;;;;;;;6309582;22;20445;-89
2023/04/10 11:51:26;;;;;;;5.40;4.75;;;;;;;;;;6309710;22;20393;-90
2023/04/10 11:54:04;;;;;;;6.32;5.40;;;;;;;;;;6309418;22;20444;-89
2023/04/10 11:56:29;;;;;;;5.85;5.28;;;;;;;;;;6309423;22;19999;-89
2023/04/10 11:58:55;;;;;;;7.10;5.82;;;;;;;;;;6310088;22;20045;-94
2023/04/10 12:01:21;;;;;;;7.28;5.57;;;;;;;;;;6308907;22;20041;-92
2023/04/10 12:03:47;;;;;;;5.72;5.22;;;;;;;;;;6309915;22;20474;-92
2023/04/10 12:06:13;;;;;;;6.25;5.65;;;;;;;;;;6309102;22;20019;-92
2023/04/10 12:08:48;;;;;;;5.78;5.28;;;;;;;;;;6310248;22;20078;-93
2023/04/10 12:11:17;;;;;;;6.47;5.75;;;;;;;;;;6310408;22;20066;-88
2023/04/10 12:13:42;;;;;;;8.43;6.15;;;;;;;;;;6309834;22;19995;-89
2023/04/10 12:16:09;;;;;;;6.30;5.70;;;;;;;;;;6309753;22;20079;-83
2023/04/10 12:18:35;;;;;;;6.40;5.80;;;;;;;;;;6309590;22;20003;-85
2023/04/10 12:21:02;;;;;;;5.35;4.88;;;;;;;;;;6309626;22;20073;-83
2023/04/10 12:23:28;;;;;;;5.65;5.15;;;;;;;;;;6309557;22;19999;-92
2023/04/10 12:26:11;;;;;;;6.03;5.53;;;;;;;;;;6309630;22;20004;-91
2023/04/10 12:28:38;;;;;;;6.68;6.07;;;;;;;;;;6309168;22;20007;-91
2023/04/10 12:31:04;;;;;;;6.75;6.13;;;;;;;;;;6309674;22;20011;-90
2023/04/10 12:33:29;;;;;;;6.55;5.95;;;;;;;;;;6309110;22;20003;-91
2023/04/10 12:35:55;;;;;;;7.10;6.50;;;;;;;;;;6309280;22;20060;-86
2023/04/10 12:38:41;;;;;;;6.05;5.22;;;;;;;;;;6309558;22;20003;-90
2023/04/10 12:41:08;;;;;;;5.72;5.30;;;;;;;;;;6309251;22;20010;-89
2023/04/10 12:43:41;;;;;;;6.93;4.93;;;;;;;;;;6309202;22;20022;-87
2023/04/10 12:46:09;;;;;;;6.57;5.50;;;;;;;;;;6309646;22;20008;-91
2023/04/10 12:48:35;;;;;;;5.70;5.20;;;;;;;;;;6310189;22;19999;-92
2023/04/10 12:51:01;;;;;;;5.65;5.22;;;;;;;;;;6309371;22;20003;-91
2023/04/10 12:53:27;;;;;;;6.47;5.22;;;;;;;;;;6309617;22;20004;-90
2023/04/10 12:56:07;;;;;;;7.43;5.03;;;;;;;;;;6309225;22;20069;-86
2023/04/10 12:58:32;;;;;;;6.95;6.35;;;;;;;;;;6307704;22;20007;-89
2023/04/10 13:01:03;;;;;;;6.15;5.55;;;;;;;;;;6309123;22;20010;-92
2023/04/10 13:03:29;;;;;;;8.30;5.75;;;;;;;;;;6309320;22;20003;-89
2023/04/10 13:05:54;;;;;;;7.00;5.43;;;;;;;;;;6309043;22;20536;-91
2023/04/10 13:08:21;;;;;;;5.45;4.95;;;;;;;;;;6309022;22;20008;-90
2023/04/10 13:10:47;;;;;;;5.47;4.97;;;;;;;;;;6308990;22;20074;-90
2023/04/10 13:13:12;;;;;;;5.90;5.30;;;;;;;;;;6308883;22;20370;-88
2023/04/10 13:15:39;;;;;;;4.57;4.18;;;;;;;;;;6308939;22;20003;-89
2023/04/10 13:18:06;;;;;;;5.90;5.30;;;;;;;;;;6308692;22;20003;-85
2023/04/10 13:20:32;;;;;;;5.47;5.05;;;;;;;;;;6309457;22;20361;-80
2023/04/10 13:22:58;;;;;;;5.28;4.78;;;;;;;;;;6308642;22;20002;-86
2023/04/10 13:25:24;;;;;;;6.93;6.05;;;;;;;;;;6309051;22;20011;-81
2023/04/10 13:27:49;;;;;;;5.43;4.93;;;;;;;;;;6306955;22;20013;-87
2023/04/10 13:30:14;;;;;;;5.95;5.35;;;;;;;;;;6309357;22;20006;-83
2023/04/10 13:32:40;;;;;;;5.90;5.30;;;;;;;;;;6308825;22;20052;-87
2023/04/10 13:35:06;;;;;;;7.82;5.28;;;;;;;;;;6309666;22;20350;-91
2023/04/10 13:37:31;;;;;;;5.47;4.75;;;;;;;;;;6311406;22;20441;-86
2023/04/10 13:39:56;;;;;;;6.40;4.90;;;;;;;;;;6309357;22;19999;-93
2023/04/10 13:42:22;;;;;;;6.18;5.38;;;;;;;;;;6309331;22;20079;-90
2023/04/10 13:44:47;;;;;;;5.43;4.93;;;;;;;;;;6309723;22;20010;-94
2023/04/10 13:47:13;;;;;;;5.82;5.30;;;;;;;;;;6309882;22;20074;-93
2023/04/10 13:49:38;;;;;;;6.50;5.30;;;;;;;;;;6310657;22;20086;-89
2023/04/10 13:52:04;;;;;;;5.80;5.30;;;;;;;;;;6309476;22;20065;-89
2023/04/10 13:54:29;;;;;;;5.40;4.90;;;;;;;;;;6309777;22;20433;-93
2023/04/10 13:56:56;;;;;;;4.70;4.30;;;;;;;;;;6308833;22;20014;-93
2023/04/10 13:59:21;;;;;;;5.47;4.97;;;;;;;;;;6309023;22;20014;-90
2023/04/10 14:01:49;;;;;;;5.53;5.00;;;;;;;;;;6308964;22;20003;-89
2023/04/10 16:30:43;;;;;;;4.18;3.78;;;;;;;;;;6313525;22;20053;-85
2023/04/10 16:33:08;;;;;;;4.25;3.85;;;;;;;;;;6311035;22;20007;-91
2023/04/10 16:35:33;;;;;;;5.68;4.65;;;;;;;;;;6309325;22;19999;-90
2023/04/10 16:37:59;;;;;;;4.55;4.15;;;;;;;;;;6309533;22;20132;-90
2023/04/10 16:40:31;;;;;;;4.50;4.10;;;;;;;;;;6306104;22;20014;-89
2023/04/10 16:42:56;;;;;;;4.63;4.00;;;;;;;;;;6308997;22;20000;-90
2023/04/10 16:45:21;;;;;;;3.92;3.53;;;;;;;;;;6308652;22;20006;-91
2023/04/10 16:47:47;;;;;;;3.45;3.15;;;;;;;;;;6309060;22;19999;-92
2023/04/10 16:50:12;;;;;;;3.63;3.30;;;;;;;;;;6309055;22;20003;-91
2023/04/10 16:52:38;;;;;;;3.47;3.17;;;;;;;;;;6309551;22;20031;-91
2023/04/10 16:55:04;;;;;;;3.70;3.40;;;;;;;;;;6309908;22;20007;-90
2023/04/10 16:57:30;;;;;;;6.03;3.05;;;;;;;;;;6309211;22;20018;-92
2023/04/10 16:59:59;;;;;;;4.05;3.40;;;;;;;;;;6309400;22;20074;-92
2023/04/10 17:02:25;;;;;;;3.28;2.97;;;;;;;;;;6309434;22;20426;-90
2023/04/10 17:04:52;;;;;;;3.50;3.20;;;;;;;;;;6309183;22;20029;-91
2023/04/10 17:07:18;;;;;;;4.97;3.70;;;;;;;;;;6309263;22;20031;-92
2023/04/10 17:09:43;;;;;;;4.28;3.17;;;;;;;;;;6309286;22;19999;-91
2023/04/10 17:12:09;;;;;;;3.80;3.50;;;;;;;;;;6308996;22;20003;-91
2023/04/10 17:14:34;;;;;;;3.38;3.08;;;;;;;;;;6309073;22;20330;-90
2023/04/10 17:17:00;;;;;;;3.78;3.47;;;;;;;;;;6307251;22;20341;-91
2023/04/10 17:19:25;;;;;;;3.70;3.40;;;;;;;;;;6307449;22;20003;-90
2023/04/10 17:21:51;;;;;;;3.40;3.10;;;;;;;;;;6309333;22;19999;-91
2023/04/10 17:24:16;;;;;;;3.88;3.55;;;;;;;;;;6312498;22;20397;-91
2023/04/10 17:26:42;;;;;;;3.60;3.25;;;;;;;;;;6309155;22;20042;-90
2023/04/10 17:29:07;;;;;;;3.58;3.28;;;;;;;;;;6309592;22;19999;-91
2023/04/10 17:31:33;;;;;;;3.78;3.25;;;;;;;;;;6308524;22;20434;-91
2023/04/10 17:33:58;;;;;;;4.15;3.45;;;;;;;;;;6308841;22;19999;-90
2023/04/10 17:36:25;;;;;;;4.53;3.97;;;;;;;;;;6308903;22;20010;-89
2023/04/10 17:38:50;;;;;;;3.80;3.50;;;;;;;;;;6308887;22;19999;-92
2023/04/10 17:41:16;;;;;;;4.32;3.90;;;;;;;;;;6307321;22;20037;-91
2023/04/10 17:43:41;;;;;;;5.43;4.10;;;;;;;;;;6308784;22;19999;-93
2023/04/10 17:46:11;;;;;;;5.97;4.03;;;;;;;;;;6309044;22;20003;-94
2023/04/10 17:48:37;;;;;;;4.38;3.97;;;;;;;;;;6309108;22;20007;-93
2023/04/10 17:51:05;;;;;;;4.90;3.97;;;;;;;;;;6307545;22;20483;-94
2023/04/10 17:53:30;;;;;;;5.35;4.43;;;;;;;;;;6308220;22;20014;-91
2023/04/10 17:55:56;;;;;;;4.45;3.97;;;;;;;;;;6309056;22;20027;-91
2023/04/10 17:58:21;;;;;;;4.30;3.63;;;;;;;;;;6308830;22;20481;-93
2023/04/10 18:00:46;;;;;;;4.70;4.20;;;;;;;;;;6309226;22;20414;-93
2023/04/10 18:03:12;;;;;;;4.60;4.20;;;;;;;;;;6308885;22;19999;-93
2023/04/10 18:05:38;;;;;;;6.13;4.15;;;;;;;;;;6308168;22;19999;-90
2023/04/10 18:08:05;;;;;;;4.88;4.20;;;;;;;;;;6310128;22;20003;-88
2023/04/10 18:10:30;;;;;;;4.18;3.67;;;;;;;;;;6309169;22;20323;-89
2023/04/10 18:12:57;;;;;;;4.47;4.00;;;;;;;;;;6308247;22;20003;-84
2023/04/10 18:15:26;;;;;;;4.50;4.10;;;;;;;;;;6308036;22;20070;-83
2023/04/10 18:17:52;;;;;;;3.47;3.17;;;;;;;;;;6307865;22;20037;-81
2023/04/10 18:20:18;;;;;;;4.07;3.67;;;;;;;;;;6307916;22;20000;-81
2023/04/10 18:22:45;;;;;;;4.45;4.05;;;;;;;;;;6307905;22;20030;-81
2023/04/10 18:25:11;;;;;;;4.00;3.67;;;;;;;;;;6308192;22;20006;-81
2023/04/10 18:27:40;;;;;;;4.75;4.25;;;;;;;;;;6307730;22;20003;-81
2023/04/10 18:30:06;;;;;;;4.32;3.92;;;;;;;;;;6307855;22;20003;-80
2023/04/10 18:32:32;;;;;;;5.30;4.05;;;;;;;;;;6307697;22;20019;-81
2023/04/10 18:34:58;;;;;;;4.57;4.15;;;;;;;;;;6307742;22;20029;-80
2023/04/10 18:37:24;;;;;;;4.30;3.88;;;;;;;;;;6307601;22;20007;-84
2023/04/10 18:39:49;;;;;;;5.88;4.47;;;;;;;;;;6308004;22;20418;-81
2023/04/10 18:42:15;;;;;;;4.70;4.20;;;;;;;;;;6307777;22;20136;-83
2023/04/10 18:44:40;;;;;;;4.55;4.13;;;;;;;;;;6307689;22;20003;-81
2023/04/10 18:47:05;;;;;;;5.05;4.55;;;;;;;;;;6307478;22;20005;-81
2023/04/10 18:49:31;;;;;;;4.40;3.90;;;;;;;;;;6307729;22;20074;-81
2023/04/10 18:51:56;;;;;;;4.47;4.03;;;;;;;;;;6307681;22;20351;-80
2023/04/10 18:54:22;;;;;;;4.60;4.20;;;;;;;;;;6306017;22;20062;-83
2023/04/10 18:56:47;;;;;;;3.58;3.22;;;;;;;;;;6307580;22;20053;-83
2023/04/10 18:59:12;;;;;;;4.40;4.00;;;;;;;;;;6307680;22;20074;-83
2023/04/10 19:01:41;;;;;;;4.35;3.95;;;;;;;;;;6308089;22;20500;-82
2023/04/10 19:04:06;;;;;;;4.55;4.10;;;;;;;;;;6307561;22;20007;-80
2023/04/10 19:06:32;;;;;;;5.45;4.95;;;;;;;;;;6307817;22;20472;-81
2023/04/10 19:08:58;;;;;;;5.30;4.50;;;;;;;;;;6307906;22;20402;-81
2023/04/10 19:11:23;;;;;;;5.90;3.63;;;;;;;;;;6307720;22;20010;-85
2023/04/10 19:13:49;;;;;;;4.40;4.00;;;;;;;;;;6307630;22;20007;-80
2023/04/10 19:16:18;;;;;;;4.38;3.97;;;;;;;;;;6307024;22;20110;-80
2023/04/10 19:18:44;;;;;;;4.20;3.80;;;;;;;;;;6309736;22;20074;-83
2023/04/10 19:21:10;;;;;;;4.20;3.80;;;;;;;;;;6307689;22;20281;-82
2023/04/10 19:23:35;;;;;;;4.22;3.78;;;;;;;;;;6309728;22;20474;-83
2023/04/10 19:26:00;;;;;;;5.75;4.25;;;;;;;;;;6309996;22;20010;-84
2023/04/10 19:28:28;;;;;;;4.13;3.72;;;;;;;;;;6309625;22;20326;-83
2023/04/10 19:30:53;;;;;;;4.53;4.13;;;;;;;;;;6309598;22;20014;-82
2023/04/10 19:33:19;;;;;;;5.93;4.72;;;;;;;;;;6309637;22;20334;-83
2023/04/10 19:35:44;;;;;;;4.55;3.78;;;;;;;;;;6307975;22;20426;-82
2023/04/10 19:38:10;;;;;;;4.85;3.78;;;;;;;;;;6307789;22;20003;-81
2023/04/10 19:40:36;;;;;;;5.00;4.50;;;;;;;;;;6307849;22;20078;-82
2023/04/10 19:43:01;;;;;;;4.20;3.80;;;;;;;;;;6309601;22;20076;-82
2023/04/10 19:45:28;;;;;;;4.43;3.90;;;;;;;;;;6309473;22;20007;-82
2023/04/10 19:47:54;;;;;;;4.72;4.20;;;;;;;;;;6307758;22;20007;-82
2023/04/10 19:50:19;;;;;;;6.10;4.63;;;;;;;;;;6309393;22;20109;-82
2023/04/10 19:52:45;;;;;;;4.93;4.20;;;;;;;;;;6309460;22;20014;-82
2023/04/10 19:55:10;;;;;;;4.80;4.32;;;;;;;;;;6309496;22;20053;-81
2023/04/10 19:57:36;;;;;;;4.20;3.83;;;;;;;;;;6309041;22;20307;-82
2023/04/10 20:00:01;;;;;;;4.50;4.10;;;;;;;;;;6309628;22;20054;-82
2023/04/10 20:02:26;;;;;;;4.22;3.83;;;;;;;;;;6307810;22;20411;-82
2023/04/10 20:04:52;;;;;;;5.03;4.50;;;;;;;;;;6309311;22;20330;-81
2023/04/10 20:07:17;;;;;;;4.40;4.00;;;;;;;;;;6309270;22;20304;-81
2023/04/10 20:09:43;;;;;;;4.95;3.90;;;;;;;;;;6307690;22;20064;-82
2023/04/10 20:12:08;;;;;;;5.88;4.35;;;;;;;;;;6309520;22;20002;-82
2023/04/10 20:14:34;;;;;;;4.43;3.75;;;;;;;;;;6309268;22;20003;-82
2023/04/10 20:16:59;;;;;;;5.22;4.47;;;;;;;;;;6308980;22;20037;-82
2023/04/10 20:19:25;;;;;;;4.97;4.15;;;;;;;;;;6309605;22;20022;-82
2023/04/10 20:21:50;;;;;;;6.18;4.03;;;;;;;;;;6309706;22;20000;-82
2023/04/10 20:24:15;;;;;;;5.65;4.50;;;;;;;;;;6309463;22;20418;-82
2023/04/10 20:26:41;;;;;;;4.78;4.03;;;;;;;;;;6308695;22;20326;-82
2023/04/10 20:29:06;;;;;;;4.20;3.80;;;;;;;;;;6308992;22;19999;-83
2023/04/10 20:31:32;;;;;;;5.03;4.38;;;;;;;;;;6308742;22;20012;-82
2023/04/10 20:33:57;;;;;;;4.80;4.18;;;;;;;;;;6308761;22;20307;-84
2023/04/10 20:36:23;;;;;;;4.75;4.22;;;;;;;;;;6309108;22;20022;-83
2023/04/10 20:38:48;;;;;;;4.82;4.22;;;;;;;;;;6309151;22;20026;-83
2023/04/10 20:41:14;;;;;;;5.18;4.13;;;;;;;;;;6309229;22;19999;-84
2023/04/10 20:43:39;;;;;;;4.35;3.75;;;;;;;;;;6308628;22;20007;-84
2023/04/10 20:46:06;;;;;;;4.43;4.03;;;;;;;;;;6308761;22;20323;-83
2023/04/10 20:48:32;;;;;;;5.10;4.20;;;;;;;;;;6309124;22;20011;-82
2023/04/10 20:50:57;;;;;;;4.75;4.30;;;;;;;;;;6307034;22;20364;-83
2023/04/10 20:53:23;;;;;;;4.10;3.42;;;;;;;;;;6309084;22;19999;-83
2023/04/10 20:55:52;;;;;;;4.63;4.22;;;;;;;;;;6308855;22;19999;-83
2023/04/10 20:58:18;;;;;;;5.07;3.80;;;;;;;;;;6308588;22;20052;-84
2023/04/10 21:00:44;;;;;;;5.15;4.40;;;;;;;;;;6308569;22;20007;-83
2023/04/10 21:03:09;;;;;;;5.35;4.38;;;;;;;;;;6308630;22;20138;-84
2023/04/10 21:05:39;;;;;;;4.93;4.35;;;;;;;;;;6308678;22;20485;-84
2023/04/10 21:08:04;;;;;;;5.03;4.32;;;;;;;;;;6308843;22;20065;-84
2023/04/10 21:10:30;;;;;;;4.70;4.30;;;;;;;;;;6308414;22;20402;-84
2023/04/10 21:12:55;;;;;;;4.97;4.15;;;;;;;;;;6307014;22;20065;-83
2023/04/10 21:15:21;;;;;;;4.20;3.80;;;;;;;;;;6308582;22;20026;-83
2023/04/10 21:17:46;;;;;;;3.90;3.53;;;;;;;;;;6308373;22;20004;-83
2023/04/10 21:20:12;;;;;;;4.53;3.97;;;;;;;;;;6306936;22;20007;-83
2023/04/10 21:22:37;;;;;;;5.40;4.05;;;;;;;;;;6308812;22;20253;-83
2023/04/10 21:25:03;;;;;;;4.65;4.03;;;;;;;;;;6308541;22;19995;-84
2023/04/10 21:27:28;;;;;;;4.10;3.70;;;;;;;;;;6308298;22;20074;-84
2023/04/10 21:29:54;;;;;;;3.88;3.47;;;;;;;;;;6308251;22;20003;-83
2023/04/10 21:32:19;;;;;;;4.18;3.78;;;;;;;;;;6308447;22;20010;-83
2023/04/10 21:34:45;;;;;;;4.13;3.70;;;;;;;;;;6308247;22;20477;-83
2023/04/10 21:37:10;;;;;;;4.20;3.80;;;;;;;;;;6308160;22;20030;-83
2023/04/10 21:39:39;;;;;;;4.03;3.55;;;;;;;;;;6308187;22;20418;-84
2023/04/10 21:42:04;;;;;;;3.92;3.40;;;;;;;;;;6308534;22;20479;-83
2023/04/10 21:44:29;;;;;;;4.20;3.60;;;;;;;;;;6308260;22;20003;-83
2023/04/10 21:46:55;;;;;;;4.38;3.72;;;;;;;;;;6307969;22;20391;-84
2023/04/10 21:49:20;;;;;;;4.10;3.70;;;;;;;;;;6308488;22;20048;-84
2023/04/10 21:51:46;;;;;;;5.40;4.05;;;;;;;;;;6308213;22;20003;-83
2023/04/10 21:54:11;;;;;;;4.38;3.97;;;;;;;;;;6308313;22;19999;-84
2023/04/10 21:56:39;;;;;;;4.45;3.70;;;;;;;;;;6308000;22;20007;-83
2023/04/10 21:59:05;;;;;;;4.15;3.70;;;;;;;;;;6307887;22;20501;-83
2023/04/10 22:01:31;;;;;;;3.63;3.33;;;;;;;;;;6308197;22;19999;-83
2023/04/10 22:03:56;;;;;;;3.80;3.40;;;;;;;;;;6308107;22;20334;-83
2023/04/10 22:06:22;;;;;;;4.20;3.38;;;;;;;;;;6308324;22;20059;-82
2023/04/10 22:08:47;;;;;;;4.00;3.60;;;;;;;;;;6308086;22;20004;-83
2023/04/10 22:11:13;;;;;;;4.65;3.70;;;;;;;;;;6308020;22;20003;-83
2023/04/10 22:13:38;;;;;;;4.70;3.88;;;;;;;;;;6307899;22;20003;-83
2023/04/10 22:16:05;;;;;;;4.22;3.83;;;;;;;;;;6307903;22;19999;-81
